Rio Blanco — D5BO9 — position and weather

sailwx.info

Track history (hours):
 
Tides and Currents Weather Stations Pressure Air Temp Water Temp Dewpoint Dewpoint Depression Visibility Wind Speed Wind Dir Waves Ship Positions

Rio Blanco

Last reported at 2015-Jan-28 06:33 UTC. Time now 2015-Jan-29 22:31 UTC.
Position N 50°26' W 000°23'.

Length 286 m; draft 11.3 m.

Type: Ship (hazmat cat A). MMSI: 636092395.

Date/timePositionNaut miles runAvg speedWind from/ knotsBaromVisibWave heightAir tempDewpointWater temp
2015-Jan-28 06:33N 50°26' W 000°23'1414.0
2015-Jan-28 05:33N 50°30' W 000°02'1413.6
2015-Jan-28 04:33N 50°33' E 000°19'1313.0
2015-Jan-28 03:33N 50°37' E 000°38'1313.3
2015-Jan-28 02:33N 50°45' E 000°55'1514.6
2015-Jan-28 01:33N 50°56' E 001°12'1616.4
2015-Jan-28 00:33N 51°06' E 001°31'1615.9
2015-Jan-27 23:34N 51°20' E 001°43'1514.9
2015-Jan-27 22:33N 51°35' E 001°44'1414.1
2015-Jan-27 21:33N 51°49' E 001°42'1211.8
2015-Jan-27 20:33N 51°42' E 001°27'2020.3
2015-Jan-27 19:33N 51°30' E 001°01'1817.8
2015-Jan-27 18:33N 51°30' E 000°32'1 1.2
2015-Jan-27 17:33N 51°30' E 000°30'0 0.0
2015-Jan-27 16:33N 51°30' E 000°30'0 0.0
2015-Jan-27 15:33N 51°30' E 000°30'0 0.0
2015-Jan-27 14:33N 51°30' E 000°30'0 0.0
2015-Jan-27 13:32N 51°30' E 000°30'0 0.0
2015-Jan-27 12:33N 51°30' E 000°30'0 0.0
2015-Jan-27 11:32N 51°30' E 000°30'0 0.0
2015-Jan-27 10:33N 51°30' E 000°30'0 0.0
2015-Jan-27 09:33N 51°30' E 000°30'0 0.0
2015-Jan-27 08:33N 51°30' E 000°30'0 0.0
2015-Jan-27 07:33N 51°30' E 000°30'0 0.0
2015-Jan-27 06:33N 51°30' E 000°30'0 0.0
2015-Jan-27 05:32N 51°30' E 000°30'0 0.0
2015-Jan-27 04:33N 51°30' E 000°30'0 0.0
2015-Jan-27 03:32N 51°30' E 000°30'0 0.0
2015-Jan-27 02:33N 51°30' E 000°30'0 0.0
2015-Jan-27 01:30N 51°30' E 000°30'0 0.0
2015-Jan-27 00:33N 51°30' E 000°30'0 0.0
2015-Jan-26 23:33N 51°30' E 000°30'0 0.0
2015-Jan-26 22:33N 51°30' E 000°30'0 0.0
2015-Jan-26 21:33N 51°30' E 000°30'0 0.0
2015-Jan-26 20:33N 51°30' E 000°30'0 0.0
2015-Jan-26 19:33N 51°30' E 000°30'0 0.0
2015-Jan-26 18:34N 51°30' E 000°30'2 1.8
2015-Jan-26 17:33N 51°30' E 000°33'1010.5
2015-Jan-26 16:33N 51°29' E 000°50'1312.7
2015-Jan-26 15:34N 51°33' E 001°09'1110.5
2015-Jan-26 14:34N 51°34' E 001°26'4 3.9
2015-Jan-26 13:31N 51°31' E 001°31'0 0.1
2015-Jan-26 12:31N 51°31' E 001°31'0 0.1
2015-Jan-26 11:31N 51°31' E 001°32'0 0.2
2015-Jan-26 10:31N 51°31' E 001°32'0 0.1
2015-Jan-26 09:31N 51°32' E 001°32'0 0.0
2015-Jan-26 08:31N 51°32' E 001°32'0 0.0
2015-Jan-26 07:34N 51°32' E 001°32'0 0.0
2015-Jan-26 06:34N 51°32' E 001°32'1 0.8
2015-Jan-26 05:34N 51°32' E 001°33'1111.3
2015-Jan-26 04:34N 51°29' E 001°51'1212.0
2015-Jan-26 03:34N 51°23' E 002°07'1110.9
2015-Jan-26 02:34N 51°21' E 002°24'1212.2
2015-Jan-26 01:34N 51°23' E 002°44'1514.5
2015-Jan-26 00:33N 51°24' E 003°07'1615.9
2015-Jan-25 23:34N 51°25' E 003°32'10 9.8
2015-Jan-25 22:34N 51°22' E 003°47'1111.2
2015-Jan-25 21:34N 51°22' E 004°05'8 7.6
2015-Jan-25 20:33N 51°20' E 004°17'0 0.0
2015-Jan-25 19:33N 51°20' E 004°17'0 0.0
2015-Jan-25 18:33N 51°20' E 004°17'0 0.0
2015-Jan-25 17:33N 51°20' E 004°17'0 0.0
2015-Jan-25 16:33N 51°20' E 004°17'0 0.0
2015-Jan-25 15:33N 51°20' E 004°17'0 0.0
2015-Jan-25 14:34N 51°20' E 004°17'0 0.0
2015-Jan-25 13:34N 51°20' E 004°17'0 0.0
2015-Jan-25 12:33N 51°20' E 004°17'0 0.0
2015-Jan-25 11:33N 51°20' E 004°17'0 0.0
2015-Jan-25 10:33N 51°20' E 004°17'0 0.0
2015-Jan-25 09:34N 51°20' E 004°17'0 0.0
2015-Jan-25 08:33N 51°20' E 004°17'0 0.0
2015-Jan-25 07:33N 51°20' E 004°17'0 0.0
2015-Jan-25 06:34N 51°20' E 004°17'0 0.0
2015-Jan-25 05:33N 51°20' E 004°17'0 0.0
2015-Jan-25 04:33N 51°20' E 004°17'0 0.0
2015-Jan-25 03:34N 51°20' E 004°17'0 0.0
2015-Jan-25 02:34N 51°20' E 004°17'0 0.0
2015-Jan-25 01:34N 51°20' E 004°17'0 0.0
2015-Jan-25 00:33N 51°20' E 004°17'0 0.0
2015-Jan-24 23:34N 51°20' E 004°17'0 0.0
2015-Jan-24 22:33N 51°20' E 004°17'0 0.0
2015-Jan-24 21:33N 51°20' E 004°17'0 0.0
2015-Jan-24 20:33N 51°20' E 004°17'0 0.0
2015-Jan-24 19:33N 51°20' E 004°17'0 0.0
2015-Jan-24 18:33N 51°20' E 004°17'0 0.0
2015-Jan-24 17:34N 51°20' E 004°17'0 0.0
2015-Jan-24 16:33N 51°20' E 004°17'0 0.0
2015-Jan-24 15:34N 51°20' E 004°17'0 0.0
2015-Jan-24 14:33N 51°20' E 004°17'2 2.0
2015-Jan-24 13:33N 51°21' E 004°14'9 9.0
2015-Jan-24 12:33N 51°26' E 004°01'1111.2
2015-Jan-24 11:33N 51°22' E 003°44'9 9.2
2015-Jan-24 10:34N 51°25' E 003°30'1010.2
2015-Jan-24 09:33N 51°24' E 003°14'9 8.8
2015-Jan-24 08:33N 51°28' E 003°01'1515.3
2015-Jan-24 07:33N 51°42' E 003°12'1414.1
2015-Jan-24 06:33N 51°55' E 003°19'2420.0
2015-Jan-24 05:20N 52°19' E 003°24'1619.6
2015-Jan-24 04:32N 52°35' E 003°30'1918.9
2015-Jan-24 03:33N 52°50' E 003°47'1919.5
2015-Jan-24 02:33N 53°03' E 004°11'2019.6
2015-Jan-24 01:33N 53°19' E 004°30'1818.4
2015-Jan-24 00:33N 53°32' E 004°52'1918.9
2015-Jan-23 23:33N 53°39' E 005°22'1817.5
2015-Jan-23 22:33N 53°44' E 005°50'1817.6
2015-Jan-23 21:33N 53°49' E 006°19'2018.4
2015-Jan-23 20:28N 53°53' E 006°52'1819.2
2015-Jan-23 19:33N 53°59' E 007°20'2020.0
2015-Jan-23 18:33N 54°02' E 007°53'1716.6
2015-Jan-23 17:33N 53°60' E 008°21'1616.0
2015-Jan-23 16:34N 53°52' E 008°45'1413.9
2015-Jan-23 15:33N 53°53' E 009°08'9 9.2
2015-Jan-23 14:33N 53°49' E 009°22'1110.8
2015-Jan-23 13:33N 53°39' E 009°31'1010.1
2015-Jan-23 12:33N 53°34' E 009°45'6 6.2
2015-Jan-23 11:33N 53°32' E 009°55'0 0.0
2015-Jan-23 10:33N 53°32' E 009°55'0 0.0
2015-Jan-23 09:33N 53°32' E 009°55'0 0.0
2015-Jan-23 08:33N 53°32' E 009°55'0 0.0
2015-Jan-23 07:33N 53°32' E 009°55'0 0.0
2015-Jan-23 06:32N 53°32' E 009°55'0 0.0
2015-Jan-23 05:30N 53°32' E 009°55'0 0.0
2015-Jan-23 04:32N 53°32' E 009°55'0 0.0
2015-Jan-23 03:30N 53°32' E 009°55'0 0.0
2015-Jan-23 02:32N 53°32' E 009°55'0 0.0
2015-Jan-23 01:33N 53°32' E 009°55'0 0.0
2015-Jan-23 00:33N 53°32' E 009°55'0 0.0
2015-Jan-22 23:33N 53°32' E 009°55'0 0.0
2015-Jan-22 22:33N 53°32' E 009°55'0 0.0
2015-Jan-22 21:33N 53°32' E 009°55'0 0.0
2015-Jan-22 20:33N 53°32' E 009°55'0 0.0
2015-Jan-22 19:32N 53°32' E 009°55'0 0.0
2015-Jan-22 18:33N 53°32' E 009°55'0 0.0
2015-Jan-22 17:33N 53°32' E 009°55'0 0.0
2015-Jan-22 16:32N 53°32' E 009°55'0 0.0
2015-Jan-22 15:33N 53°32' E 009°55'0 0.0
2015-Jan-22 14:33N 53°32' E 009°55'0 0.0
2015-Jan-22 13:33N 53°32' E 009°55'0 0.0
2015-Jan-22 12:33N 53°32' E 009°55'0 0.0
2015-Jan-22 11:33N 53°32' E 009°55'0 0.0
2015-Jan-22 10:33N 53°32' E 009°55'0 0.0
2015-Jan-22 09:33N 53°32' E 009°55'0 0.0
2015-Jan-22 08:33N 53°32' E 009°55'0 0.0
2015-Jan-22 07:33N 53°32' E 009°55'0 0.0
2015-Jan-22 06:33N 53°32' E 009°55'1 0.7
2015-Jan-22 05:33N 53°32' E 009°54'6 5.6
2015-Jan-22 04:33N 53°34' E 009°45'10 9.9
2015-Jan-22 03:33N 53°39' E 009°31'1212.2
2015-Jan-22 02:33N 53°50' E 009°21'1111.1
2015-Jan-22 01:34N 53°52' E 009°03'1212.3
2015-Jan-22 00:33N 53°53' E 008°42'1312.6
2015-Jan-21 23:34N 53°59' E 008°23'1014.0
2015-Jan-21 22:50N 53°59' E 008°06'111.6
2015-Jan-21 22:46N 53°59' E 008°05'2 9.6
2015-Jan-21 22:34N 53°58' E 008°01'9 9.4
2015-Jan-21 21:34N 53°56' E 007°46'1312.6
2015-Jan-21 20:33N 53°54' E 007°25'1513.5
2015-Jan-21 19:25N 53°50' E 006°60'1213.2
2015-Jan-21 18:32N 53°48' E 006°40'1712.8
2015-Jan-21 17:14N 53°44' E 006°13'912.7
2015-Jan-21 16:33N 53°41' E 005°59'1312.7
2015-Jan-21 15:33N 53°37' E 005°39'1212.4
2015-Jan-21 14:34N 53°33' E 005°19'1212.1
2015-Jan-21 13:34N 53°29' E 004°60'1211.8
2015-Jan-21 12:34N 53°24' E 004°42'1212.3
2015-Jan-21 11:34N 53°13' E 004°34'1312.9
2015-Jan-21 10:34N 53°02' E 004°23'1313.1
2015-Jan-21 09:33N 52°50' E 004°14'1312.9
2015-Jan-21 08:32N 52°40' E 004°00'1513.2
2015-Jan-21 07:26N 52°30' E 003°43'1314.3
2015-Jan-21 06:33N 52°21' E 003°28'1615.6
2015-Jan-21 05:32N 52°09' E 003°10'1616.1
2015-Jan-21 04:33N 51°58' E 002°52'2516.9
2015-Jan-21 03:04N 51°39' E 002°27'1019.6
2015-Jan-21 02:33N 51°31' E 002°16'1919.1
2015-Jan-21 01:34N 51°14' E 002°03'2120.9
2015-Jan-21 00:33N 51°01' E 001°37'2120.5
2015-Jan-20 23:33N 50°43' E 001°21'2519.2
2015-Jan-20 22:14N 50°28' E 000°49'1419.6
2015-Jan-20 21:32N 50°23' E 000°29'35616.5
2015-Jan-20 00:00N 47°00' W 006°54'49114.6 180 / 221010.0 5.4 2.0 7.8 5.315.0
2015-Jan-18 14:22N 39°06' W 009°51'1316.2
2015-Jan-18 13:33N 38°53' W 009°51'1616.3
2015-Jan-18 12:34N 38°37' W 009°50'1616.0
2015-Jan-18 11:33N 38°21' W 009°45'1615.7
2015-Jan-18 10:33N 38°06' W 009°41'1615.6
2015-Jan-18 09:34N 37°51' W 009°36'1615.5
2015-Jan-18 08:33N 37°35' W 009°32'1515.2
2015-Jan-18 07:33N 37°21' W 009°27'  
Track history (hours):
 
Tides and Currents Weather Stations Pressure Air Temp Water Temp Dewpoint Dewpoint Depression Visibility Wind Speed Wind Dir Waves Ship Positions

Rio Blanco

Last reported at 2015-Jan-28 06:33 UTC. Time now 2015-Jan-29 22:31 UTC.
Position N 50°26' W 000°23'.

Length 286 m; draft 11.3 m.

Type: Ship (hazmat cat A). MMSI: 636092395.

Date/timePositionNaut miles runAvg speedWind from/ knotsBaromVisibWave heightAir tempDewpointWater temp
2015-Jan-28 06:33N 50°26' W 000°23'1414.0
2015-Jan-28 05:33N 50°30' W 000°02'1413.6
2015-Jan-28 04:33N 50°33' E 000°19'1313.0
2015-Jan-28 03:33N 50°37' E 000°38'1313.3
2015-Jan-28 02:33N 50°45' E 000°55'1514.6
2015-Jan-28 01:33N 50°56' E 001°12'1616.4
2015-Jan-28 00:33N 51°06' E 001°31'1615.9
2015-Jan-27 23:34N 51°20' E 001°43'1514.9
2015-Jan-27 22:33N 51°35' E 001°44'1414.1
2015-Jan-27 21:33N 51°49' E 001°42'1211.8
2015-Jan-27 20:33N 51°42' E 001°27'2020.3
2015-Jan-27 19:33N 51°30' E 001°01'1817.8
2015-Jan-27 18:33N 51°30' E 000°32'1 1.2
2015-Jan-27 17:33N 51°30' E 000°30'0 0.0
2015-Jan-27 16:33N 51°30' E 000°30'0 0.0
2015-Jan-27 15:33N 51°30' E 000°30'0 0.0
2015-Jan-27 14:33N 51°30' E 000°30'0 0.0
2015-Jan-27 13:32N 51°30' E 000°30'0 0.0
2015-Jan-27 12:33N 51°30' E 000°30'0 0.0
2015-Jan-27 11:32N 51°30' E 000°30'0 0.0
2015-Jan-27 10:33N 51°30' E 000°30'0 0.0
2015-Jan-27 09:33N 51°30' E 000°30'0 0.0
2015-Jan-27 08:33N 51°30' E 000°30'0 0.0
2015-Jan-27 07:33N 51°30' E 000°30'0 0.0
2015-Jan-27 06:33N 51°30' E 000°30'0 0.0
2015-Jan-27 05:32N 51°30' E 000°30'0 0.0
2015-Jan-27 04:33N 51°30' E 000°30'0 0.0
2015-Jan-27 03:32N 51°30' E 000°30'0 0.0
2015-Jan-27 02:33N 51°30' E 000°30'0 0.0
2015-Jan-27 01:30N 51°30' E 000°30'0 0.0
2015-Jan-27 00:33N 51°30' E 000°30'0 0.0
2015-Jan-26 23:33N 51°30' E 000°30'0 0.0
2015-Jan-26 22:33N 51°30' E 000°30'0 0.0
2015-Jan-26 21:33N 51°30' E 000°30'0 0.0
2015-Jan-26 20:33N 51°30' E 000°30'0 0.0
2015-Jan-26 19:33N 51°30' E 000°30'0 0.0
2015-Jan-26 18:34N 51°30' E 000°30'2 1.8
2015-Jan-26 17:33N 51°30' E 000°33'1010.5
2015-Jan-26 16:33N 51°29' E 000°50'1312.7
2015-Jan-26 15:34N 51°33' E 001°09'1110.5
2015-Jan-26 14:34N 51°34' E 001°26'4 3.9
2015-Jan-26 13:31N 51°31' E 001°31'0 0.1
2015-Jan-26 12:31N 51°31' E 001°31'0 0.1
2015-Jan-26 11:31N 51°31' E 001°32'0 0.2
2015-Jan-26 10:31N 51°31' E 001°32'0 0.1
2015-Jan-26 09:31N 51°32' E 001°32'0 0.0
2015-Jan-26 08:31N 51°32' E 001°32'0 0.0
2015-Jan-26 07:34N 51°32' E 001°32'0 0.0
2015-Jan-26 06:34N 51°32' E 001°32'1 0.8
2015-Jan-26 05:34N 51°32' E 001°33'1111.3
2015-Jan-26 04:34N 51°29' E 001°51'1212.0
2015-Jan-26 03:34N 51°23' E 002°07'1110.9
2015-Jan-26 02:34N 51°21' E 002°24'1212.2
2015-Jan-26 01:34N 51°23' E 002°44'1514.5
2015-Jan-26 00:33N 51°24' E 003°07'1615.9
2015-Jan-25 23:34N 51°25' E 003°32'10 9.8
2015-Jan-25 22:34N 51°22' E 003°47'1111.2
2015-Jan-25 21:34N 51°22' E 004°05'8 7.6
2015-Jan-25 20:33N 51°20' E 004°17'0 0.0
2015-Jan-25 19:33N 51°20' E 004°17'0 0.0
2015-Jan-25 18:33N 51°20' E 004°17'0 0.0
2015-Jan-25 17:33N 51°20' E 004°17'0 0.0
2015-Jan-25 16:33N 51°20' E 004°17'0 0.0
2015-Jan-25 15:33N 51°20' E 004°17'0 0.0
2015-Jan-25 14:34N 51°20' E 004°17'0 0.0
2015-Jan-25 13:34N 51°20' E 004°17'0 0.0
2015-Jan-25 12:33N 51°20' E 004°17'0 0.0
2015-Jan-25 11:33N 51°20' E 004°17'0 0.0
2015-Jan-25 10:33N 51°20' E 004°17'0 0.0
2015-Jan-25 09:34N 51°20' E 004°17'0 0.0
2015-Jan-25 08:33N 51°20' E 004°17'0 0.0
2015-Jan-25 07:33N 51°20' E 004°17'0 0.0
2015-Jan-25 06:34N 51°20' E 004°17'0 0.0
2015-Jan-25 05:33N 51°20' E 004°17'0 0.0
2015-Jan-25 04:33N 51°20' E 004°17'0 0.0
2015-Jan-25 03:34N 51°20' E 004°17'0 0.0
2015-Jan-25 02:34N 51°20' E 004°17'0 0.0
2015-Jan-25 01:34N 51°20' E 004°17'0 0.0
2015-Jan-25 00:33N 51°20' E 004°17'0 0.0
2015-Jan-24 23:34N 51°20' E 004°17'0 0.0
2015-Jan-24 22:33N 51°20' E 004°17'0 0.0
2015-Jan-24 21:33N 51°20' E 004°17'0 0.0
2015-Jan-24 20:33N 51°20' E 004°17'0 0.0
2015-Jan-24 19:33N 51°20' E 004°17'0 0.0
2015-Jan-24 18:33N 51°20' E 004°17'0 0.0
2015-Jan-24 17:34N 51°20' E 004°17'0 0.0
2015-Jan-24 16:33N 51°20' E 004°17'0 0.0
2015-Jan-24 15:34N 51°20' E 004°17'0 0.0
2015-Jan-24 14:33N 51°20' E 004°17'2 2.0
2015-Jan-24 13:33N 51°21' E 004°14'9 9.0
2015-Jan-24 12:33N 51°26' E 004°01'1111.2
2015-Jan-24 11:33N 51°22' E 003°44'9 9.2
2015-Jan-24 10:34N 51°25' E 003°30'1010.2
2015-Jan-24 09:33N 51°24' E 003°14'9 8.8
2015-Jan-24 08:33N 51°28' E 003°01'1515.3
2015-Jan-24 07:33N 51°42' E 003°12'1414.1
2015-Jan-24 06:33N 51°55' E 003°19'2420.0
2015-Jan-24 05:20N 52°19' E 003°24'1619.6
2015-Jan-24 04:32N 52°35' E 003°30'1918.9
2015-Jan-24 03:33N 52°50' E 003°47'1919.5
2015-Jan-24 02:33N 53°03' E 004°11'2019.6
2015-Jan-24 01:33N 53°19' E 004°30'1818.4
2015-Jan-24 00:33N 53°32' E 004°52'1918.9
2015-Jan-23 23:33N 53°39' E 005°22'1817.5
2015-Jan-23 22:33N 53°44' E 005°50'1817.6
2015-Jan-23 21:33N 53°49' E 006°19'2018.4
2015-Jan-23 20:28N 53°53' E 006°52'1819.2
2015-Jan-23 19:33N 53°59' E 007°20'2020.0
2015-Jan-23 18:33N 54°02' E 007°53'1716.6
2015-Jan-23 17:33N 53°60' E 008°21'1616.0
2015-Jan-23 16:34N 53°52' E 008°45'1413.9
2015-Jan-23 15:33N 53°53' E 009°08'9 9.2
2015-Jan-23 14:33N 53°49' E 009°22'1110.8
2015-Jan-23 13:33N 53°39' E 009°31'1010.1
2015-Jan-23 12:33N 53°34' E 009°45'6 6.2
2015-Jan-23 11:33N 53°32' E 009°55'0 0.0
2015-Jan-23 10:33N 53°32' E 009°55'0 0.0
2015-Jan-23 09:33N 53°32' E 009°55'0 0.0
2015-Jan-23 08:33N 53°32' E 009°55'0 0.0
2015-Jan-23 07:33N 53°32' E 009°55'0 0.0
2015-Jan-23 06:32N 53°32' E 009°55'0 0.0
2015-Jan-23 05:30N 53°32' E 009°55'0 0.0
2015-Jan-23 04:32N 53°32' E 009°55'0 0.0
2015-Jan-23 03:30N 53°32' E 009°55'0 0.0
2015-Jan-23 02:32N 53°32' E 009°55'0 0.0
2015-Jan-23 01:33N 53°32' E 009°55'0 0.0
2015-Jan-23 00:33N 53°32' E 009°55'0 0.0
2015-Jan-22 23:33N 53°32' E 009°55'0 0.0
2015-Jan-22 22:33N 53°32' E 009°55'0 0.0
2015-Jan-22 21:33N 53°32' E 009°55'0 0.0
2015-Jan-22 20:33N 53°32' E 009°55'0 0.0
2015-Jan-22 19:32N 53°32' E 009°55'0 0.0
2015-Jan-22 18:33N 53°32' E 009°55'0 0.0
2015-Jan-22 17:33N 53°32' E 009°55'0 0.0
2015-Jan-22 16:32N 53°32' E 009°55'0 0.0
2015-Jan-22 15:33N 53°32' E 009°55'0 0.0
2015-Jan-22 14:33N 53°32' E 009°55'0 0.0
2015-Jan-22 13:33N 53°32' E 009°55'0 0.0
2015-Jan-22 12:33N 53°32' E 009°55'0 0.0
2015-Jan-22 11:33N 53°32' E 009°55'0 0.0
2015-Jan-22 10:33N 53°32' E 009°55'0 0.0
2015-Jan-22 09:33N 53°32' E 009°55'0 0.0
2015-Jan-22 08:33N 53°32' E 009°55'0 0.0
2015-Jan-22 07:33N 53°32' E 009°55'0 0.0
2015-Jan-22 06:33N 53°32' E 009°55'1 0.7
2015-Jan-22 05:33N 53°32' E 009°54'6 5.6
2015-Jan-22 04:33N 53°34' E 009°45'10 9.9
2015-Jan-22 03:33N 53°39' E 009°31'1212.2
2015-Jan-22 02:33N 53°50' E 009°21'1111.1
2015-Jan-22 01:34N 53°52' E 009°03'1212.3
2015-Jan-22 00:33N 53°53' E 008°42'1312.6
2015-Jan-21 23:34N 53°59' E 008°23'1014.0
2015-Jan-21 22:50N 53°59' E 008°06'111.6
2015-Jan-21 22:46N 53°59' E 008°05'2 9.6
2015-Jan-21 22:34N 53°58' E 008°01'9 9.4
2015-Jan-21 21:34N 53°56' E 007°46'1312.6
2015-Jan-21 20:33N 53°54' E 007°25'1513.5
2015-Jan-21 19:25N 53°50' E 006°60'1213.2
2015-Jan-21 18:32N 53°48' E 006°40'1712.8
2015-Jan-21 17:14N 53°44' E 006°13'912.7
2015-Jan-21 16:33N 53°41' E 005°59'1312.7
2015-Jan-21 15:33N 53°37' E 005°39'1212.4
2015-Jan-21 14:34N 53°33' E 005°19'1212.1
2015-Jan-21 13:34N 53°29' E 004°60'1211.8
2015-Jan-21 12:34N 53°24' E 004°42'1212.3
2015-Jan-21 11:34N 53°13' E 004°34'1312.9
2015-Jan-21 10:34N 53°02' E 004°23'1313.1
2015-Jan-21 09:33N 52°50' E 004°14'1312.9
2015-Jan-21 08:32N 52°40' E 004°00'1513.2
2015-Jan-21 07:26N 52°30' E 003°43'1314.3
2015-Jan-21 06:33N 52°21' E 003°28'1615.6
2015-Jan-21 05:32N 52°09' E 003°10'1616.1
2015-Jan-21 04:33N 51°58' E 002°52'2516.9
2015-Jan-21 03:04N 51°39' E 002°27'1019.6
2015-Jan-21 02:33N 51°31' E 002°16'1919.1
2015-Jan-21 01:34N 51°14' E 002°03'2120.9
2015-Jan-21 00:33N 51°01' E 001°37'2120.5
2015-Jan-20 23:33N 50°43' E 001°21'2519.2
2015-Jan-20 22:14N 50°28' E 000°49'1419.6
2015-Jan-20 21:32N 50°23' E 000°29'35616.5
2015-Jan-20 00:00N 47°00' W 006°54'49114.6 180 / 221010.0 5.4 2.0 7.8 5.315.0
2015-Jan-18 14:22N 39°06' W 009°51'1316.2
2015-Jan-18 13:33N 38°53' W 009°51'1616.3
2015-Jan-18 12:34N 38°37' W 009°50'1616.0
2015-Jan-18 11:33N 38°21' W 009°45'1615.7
2015-Jan-18 10:33N 38°06' W 009°41'1615.6
2015-Jan-18 09:34N 37°51' W 009°36'1615.5
2015-Jan-18 08:33N 37°35' W 009°32'1515.2
2015-Jan-18 07:33N 37°21' W 009°27'  

Dump ship's entire track history